sensor_id;sensor_type;location;lat;lon;timestamp;temperature;humidity
18884;DHT22;9574;47.282;9.640;2023-04-15T00:00:15;5.40;99.90
18884;DHT22;9574;47.282;9.640;2023-04-15T00:02:43;5.40;99.90
18884;DHT22;9574;47.282;9.640;2023-04-15T00:05:10;5.30;99.90
18884;DHT22;9574;47.282;9.640;2023-04-15T00:07:37;5.20;99.90
18884;DHT22;9574;47.282;9.640;2023-04-15T00:10:05;5.00;99.90
18884;DHT22;9574;47.282;9.640;2023-04-15T00:12:33;5.00;99.90
18884;DHT22;9574;47.282;9.640;2023-04-15T00:15:01;5.00;99.90
18884;DHT22;9574;47.282;9.640;2023-04-15T00:17:28;5.00;99.90
18884;DHT22;9574;47.282;9.640;2023-04-15T00:19:56;4.90;99.90
18884;DHT22;9574;47.282;9.640;2023-04-15T00:22:24;4.90;99.90
18884;DHT22;9574;47.282;9.640;2023-04-15T00:24:52;4.90;99.90
18884;DHT22;9574;47.282;9.640;2023-04-15T00:27:19;4.90;99.90
18884;DHT22;9574;47.282;9.640;2023-04-15T00:29:46;4.90;99.90
18884;DHT22;9574;47.282;9.640;2023-04-15T00:32:13;4.80;99.90
18884;DHT22;9574;47.282;9.640;2023-04-15T00:34:40;4.70;99.90
18884;DHT22;9574;47.282;9.640;2023-04-15T00:37:08;4.60;99.90
18884;DHT22;9574;47.282;9.640;2023-04-15T00:39:35;4.60;99.90
18884;DHT22;9574;47.282;9.640;2023-04-15T00:42:04;4.60;99.90
18884;DHT22;9574;47.282;9.640;2023-04-15T00:44:31;4.60;99.90
18884;DHT22;9574;47.282;9.640;2023-04-15T00:46:59;4.70;99.90
18884;DHT22;9574;47.282;9.640;2023-04-15T00:49:27;4.60;99.90
18884;DHT22;9574;47.282;9.640;2023-04-15T00:51:54;4.60;99.90
18884;DHT22;9574;47.282;9.640;2023-04-15T00:54:23;4.50;99.90
18884;DHT22;9574;47.282;9.640;2023-04-15T00:56:50;4.50;99.90
18884;DHT22;9574;47.282;9.640;2023-04-15T00:59:18;4.50;99.90
18884;DHT22;9574;47.282;9.640;2023-04-15T01:01:46;4.50;99.90
18884;DHT22;9574;47.282;9.640;2023-04-15T01:04:13;4.60;99.90
18884;DHT22;9574;47.282;9.640;2023-04-15T01:06:40;4.60;99.90
18884;DHT22;9574;47.282;9.640;2023-04-15T01:09:07;4.50;99.90
18884;DHT22;9574;47.282;9.640;2023-04-15T01:11:35;4.50;99.90
18884;DHT22;9574;47.282;9.640;2023-04-15T01:14:02;4.50;99.90
18884;DHT22;9574;47.282;9.640;2023-04-15T01:16:30;4.50;99.90
18884;DHT22;9574;47.282;9.640;2023-04-15T01:18:57;4.50;99.90
18884;DHT22;9574;47.282;9.640;2023-04-15T01:21:24;4.50;99.90
18884;DHT22;9574;47.282;9.640;2023-04-15T01:23:52;4.50;99.90
18884;DHT22;9574;47.282;9.640;2023-04-15T01:26:22;4.50;99.90
18884;DHT22;9574;47.282;9.640;2023-04-15T01:28:50;4.60;99.90
18884;DHT22;9574;47.282;9.640;2023-04-15T01:31:17;4.70;99.90
18884;DHT22;9574;47.282;9.640;2023-04-15T01:33:44;4.80;99.90
18884;DHT22;9574;47.282;9.640;2023-04-15T01:36:11;4.60;99.90
18884;DHT22;9574;47.282;9.640;2023-04-15T01:38:39;4.60;99.90
18884;DHT22;9574;47.282;9.640;2023-04-15T01:41:06;4.60;99.90
18884;DHT22;9574;47.282;9.640;2023-04-15T01:43:35;4.50;99.90
18884;DHT22;9574;47.282;9.640;2023-04-15T01:46:02;4.50;99.90
18884;DHT22;9574;47.282;9.640;2023-04-15T01:48:29;4.30;99.90
18884;DHT22;9574;47.282;9.640;2023-04-15T01:50:57;4.30;99.90
18884;DHT22;9574;47.282;9.640;2023-04-15T01:53:24;4.20;99.90
18884;DHT22;9574;47.282;9.640;2023-04-15T01:55:51;4.20;99.90
18884;DHT22;9574;47.282;9.640;2023-04-15T01:58:18;4.10;99.90
18884;DHT22;9574;47.282;9.640;2023-04-15T02:00:47;4.10;99.90
18884;DHT22;9574;47.282;9.640;2023-04-15T02:03:15;4.10;99.90
18884;DHT22;9574;47.282;9.640;2023-04-15T02:05:42;4.10;99.90
18884;DHT22;9574;47.282;9.640;2023-04-15T02:08:10;4.10;99.90
18884;DHT22;9574;47.282;9.640;2023-04-15T02:10:37;4.00;99.90
18884;DHT22;9574;47.282;9.640;2023-04-15T02:13:04;4.10;99.90
18884;DHT22;9574;47.282;9.640;2023-04-15T02:15:31;4.00;99.90
18884;DHT22;9574;47.282;9.640;2023-04-15T02:17:59;4.10;99.90
18884;DHT22;9574;47.282;9.640;2023-04-15T02:20:26;4.10;99.90
18884;DHT22;9574;47.282;9.640;2023-04-15T02:22:55;4.10;99.90
18884;DHT22;9574;47.282;9.640;2023-04-15T02:25:22;4.10;99.90
18884;DHT22;9574;47.282;9.640;2023-04-15T02:27:49;4.10;99.90
18884;DHT22;9574;47.282;9.640;2023-04-15T02:30:16;4.20;99.90
18884;DHT22;9574;47.282;9.640;2023-04-15T02:32:43;4.20;99.90
18884;DHT22;9574;47.282;9.640;2023-04-15T02:35:11;4.20;99.90
18884;DHT22;9574;47.282;9.640;2023-04-15T02:37:38;4.10;99.90
18884;DHT22;9574;47.282;9.640;2023-04-15T02:40:08;4.00;99.90
18884;DHT22;9574;47.282;9.640;2023-04-15T02:42:37;4.00;99.90
18884;DHT22;9574;47.282;9.640;2023-04-15T02:45:05;4.00;99.90
18884;DHT22;9574;47.282;9.640;2023-04-15T02:47:32;3.90;99.90
18884;DHT22;9574;47.282;9.640;2023-04-15T02:50:01;4.00;99.90
18884;DHT22;9574;47.282;9.640;2023-04-15T02:52:29;3.90;99.90
18884;DHT22;9574;47.282;9.640;2023-04-15T02:54:57;3.90;99.90
18884;DHT22;9574;47.282;9.640;2023-04-15T02:57:26;3.90;99.90
18884;DHT22;9574;47.282;9.640;2023-04-15T02:59:54;3.90;99.90
18884;DHT22;9574;47.282;9.640;2023-04-15T03:02:21;3.90;99.90
18884;DHT22;9574;47.282;9.640;2023-04-15T03:04:48;4.00;99.90
18884;DHT22;9574;47.282;9.640;2023-04-15T03:07:16;4.00;99.90
18884;DHT22;9574;47.282;9.640;2023-04-15T03:09:44;4.00;99.90
18884;DHT22;9574;47.282;9.640;2023-04-15T03:12:12;3.90;99.90
18884;DHT22;9574;47.282;9.640;2023-04-15T03:14:39;3.90;99.90
18884;DHT22;9574;47.282;9.640;2023-04-15T03:17:06;3.90;99.90
18884;DHT22;9574;47.282;9.640;2023-04-15T03:19:33;4.00;99.90
18884;DHT22;9574;47.282;9.640;2023-04-15T03:22:00;3.90;99.90
18884;DHT22;9574;47.282;9.640;2023-04-15T03:24:27;3.90;99.90
18884;DHT22;9574;47.282;9.640;2023-04-15T03:26:56;3.80;99.90
18884;DHT22;9574;47.282;9.640;2023-04-15T03:29:23;3.80;99.90
18884;DHT22;9574;47.282;9.640;2023-04-15T03:31:51;3.80;99.90
18884;DHT22;9574;47.282;9.640;2023-04-15T03:34:18;3.70;99.90
18884;DHT22;9574;47.282;9.640;2023-04-15T03:36:45;3.70;99.90
18884;DHT22;9574;47.282;9.640;2023-04-15T03:39:12;3.60;99.90
18884;DHT22;9574;47.282;9.640;2023-04-15T03:41:39;3.60;99.90
18884;DHT22;9574;47.282;9.640;2023-04-15T03:44:08;3.60;99.90
18884;DHT22;9574;47.282;9.640;2023-04-15T03:46:35;3.50;99.90
18884;DHT22;9574;47.282;9.640;2023-04-15T03:49:02;3.60;99.90
18884;DHT22;9574;47.282;9.640;2023-04-15T03:51:29;3.50;99.90
18884;DHT22;9574;47.282;9.640;2023-04-15T03:53:56;3.60;99.90
18884;DHT22;9574;47.282;9.640;2023-04-15T03:56:23;3.60;99.90
18884;DHT22;9574;47.282;9.640;2023-04-15T03:58:50;3.60;99.90
18884;DHT22;9574;47.282;9.640;2023-04-15T04:01:18;3.60;99.90
18884;DHT22;9574;47.282;9.640;2023-04-15T04:03:45;3.70;99.90
18884;DHT22;9574;47.282;9.640;2023-04-15T04:06:13;3.70;99.90
18884;DHT22;9574;47.282;9.640;2023-04-15T04:08:40;3.60;99.90
18884;DHT22;9574;47.282;9.640;2023-04-15T04:11:07;3.60;99.90
18884;DHT22;9574;47.282;9.640;2023-04-15T04:13:34;3.60;99.90
18884;DHT22;9574;47.282;9.640;2023-04-15T04:16:01;3.60;99.90
18884;DHT22;9574;47.282;9.640;2023-04-15T04:18:30;3.70;99.90
18884;DHT22;9574;47.282;9.640;2023-04-15T04:20:57;3.60;99.90
18884;DHT22;9574;47.282;9.640;2023-04-15T04:23:24;3.70;99.90
18884;DHT22;9574;47.282;9.640;2023-04-15T04:25:51;3.70;99.90
18884;DHT22;9574;47.282;9.640;2023-04-15T04:28:18;3.70;99.90
18884;DHT22;9574;47.282;9.640;2023-04-15T04:30:45;3.60;99.90
18884;DHT22;9574;47.282;9.640;2023-04-15T04:33:12;3.50;99.90
18884;DHT22;9574;47.282;9.640;2023-04-15T04:35:40;3.50;99.90
18884;DHT22;9574;47.282;9.640;2023-04-15T04:38:07;3.50;99.90
18884;DHT22;9574;47.282;9.640;2023-04-15T04:40:34;3.40;99.90
18884;DHT22;9574;47.282;9.640;2023-04-15T04:43:01;3.40;99.90
18884;DHT22;9574;47.282;9.640;2023-04-15T04:45:28;3.60;99.90
18884;DHT22;9574;47.282;9.640;2023-04-15T04:47:55;3.90;99.90
18884;DHT22;9574;47.282;9.640;2023-04-15T04:50:22;3.80;99.90
18884;DHT22;9574;47.282;9.640;2023-04-15T04:52:50;3.90;99.90
18884;DHT22;9574;47.282;9.640;2023-04-15T04:55:17;3.80;99.90
18884;DHT22;9574;47.282;9.640;2023-04-15T04:57:44;3.70;99.90
18884;DHT22;9574;47.282;9.640;2023-04-15T05:00:12;3.60;99.90
18884;DHT22;9574;47.282;9.640;2023-04-15T05:02:39;3.50;99.90
18884;DHT22;9574;47.282;9.640;2023-04-15T05:05:08;3.60;99.90
18884;DHT22;9574;47.282;9.640;2023-04-15T05:07:36;3.50;99.90
18884;DHT22;9574;47.282;9.640;2023-04-15T05:10:06;3.60;99.90
18884;DHT22;9574;47.282;9.640;2023-04-15T05:12:34;3.60;99.90
18884;DHT22;9574;47.282;9.640;2023-04-15T05:15:02;3.60;99.90
18884;DHT22;9574;47.282;9.640;2023-04-15T05:17:29;3.60;99.90
18884;DHT22;9574;47.282;9.640;2023-04-15T05:19:57;3.60;99.90
18884;DHT22;9574;47.282;9.640;2023-04-15T05:22:24;3.50;99.90
18884;DHT22;9574;47.282;9.640;2023-04-15T05:24:51;3.50;99.90
18884;DHT22;9574;47.282;9.640;2023-04-15T05:27:20;3.50;99.90
18884;DHT22;9574;47.282;9.640;2023-04-15T05:29:47;3.50;99.90
18884;DHT22;9574;47.282;9.640;2023-04-15T05:32:14;3.60;99.90
18884;DHT22;9574;47.282;9.640;2023-04-15T05:34:42;3.80;99.90
18884;DHT22;9574;47.282;9.640;2023-04-15T05:37:09;3.70;99.90
18884;DHT22;9574;47.282;9.640;2023-04-15T05:39:36;3.80;99.90
18884;DHT22;9574;47.282;9.640;2023-04-15T05:42:03;3.90;99.90
18884;DHT22;9574;47.282;9.640;2023-04-15T05:44:34;4.00;99.90
18884;DHT22;9574;47.282;9.640;2023-04-15T05:47:00;4.20;99.90
18884;DHT22;9574;47.282;9.640;2023-04-15T05:49:28;4.60;99.90
18884;DHT22;9574;47.282;9.640;2023-04-15T05:51:55;5.00;99.90
18884;DHT22;9574;47.282;9.640;2023-04-15T05:54:22;5.20;99.90
18884;DHT22;9574;47.282;9.640;2023-04-15T05:56:49;5.30;99.90
18884;DHT22;9574;47.282;9.640;2023-04-15T05:59:16;5.50;99.90
18884;DHT22;9574;47.282;9.640;2023-04-15T06:01:44;5.40;99.90
18884;DHT22;9574;47.282;9.640;2023-04-15T06:04:11;5.20;99.90
18884;DHT22;9574;47.282;9.640;2023-04-15T06:06:38;5.00;99.90
18884;DHT22;9574;47.282;9.640;2023-04-15T06:09:05;4.90;99.90
18884;DHT22;9574;47.282;9.640;2023-04-15T06:11:32;5.00;99.90
18884;DHT22;9574;47.282;9.640;2023-04-15T06:13:59;5.10;99.90
18884;DHT22;9574;47.282;9.640;2023-04-15T06:16:26;5.10;99.90
18884;DHT22;9574;47.282;9.640;2023-04-15T06:18:54;5.00;99.90
18884;DHT22;9574;47.282;9.640;2023-04-15T06:21:21;5.00;99.90
18884;DHT22;9574;47.282;9.640;2023-04-15T06:23:48;5.10;99.90
18884;DHT22;9574;47.282;9.640;2023-04-15T06:26:15;5.10;99.90
18884;DHT22;9574;47.282;9.640;2023-04-15T06:28:42;5.20;99.90
18884;DHT22;9574;47.282;9.640;2023-04-15T06:31:09;5.30;99.90
18884;DHT22;9574;47.282;9.640;2023-04-15T06:33:36;5.30;99.90
18884;DHT22;9574;47.282;9.640;2023-04-15T06:36:06;5.40;99.90
18884;DHT22;9574;47.282;9.640;2023-04-15T06:38:33;5.50;99.90
18884;DHT22;9574;47.282;9.640;2023-04-15T06:41:00;5.60;99.90
18884;DHT22;9574;47.282;9.640;2023-04-15T06:43:27;5.70;99.90
18884;DHT22;9574;47.282;9.640;2023-04-15T06:45:54;5.90;99.90
18884;DHT22;9574;47.282;9.640;2023-04-15T06:48:21;6.00;99.90
18884;DHT22;9574;47.282;9.640;2023-04-15T06:50:48;6.40;99.90
18884;DHT22;9574;47.282;9.640;2023-04-15T06:53:16;6.40;99.90
18884;DHT22;9574;47.282;9.640;2023-04-15T06:55:44;6.50;99.90
18884;DHT22;9574;47.282;9.640;2023-04-15T06:58:11;6.50;99.90
18884;DHT22;9574;47.282;9.640;2023-04-15T07:00:38;6.60;99.90
18884;DHT22;9574;47.282;9.640;2023-04-15T07:03:05;6.60;99.90
18884;DHT22;9574;47.282;9.640;2023-04-15T07:05:34;6.60;99.90
18884;DHT22;9574;47.282;9.640;2023-04-15T07:08:01;6.70;99.90
18884;DHT22;9574;47.282;9.640;2023-04-15T07:10:30;6.90;99.90
18884;DHT22;9574;47.282;9.640;2023-04-15T07:12:57;7.20;99.90
18884;DHT22;9574;47.282;9.640;2023-04-15T07:15:24;7.30;99.90
18884;DHT22;9574;47.282;9.640;2023-04-15T07:17:51;7.40;99.90
18884;DHT22;9574;47.282;9.640;2023-04-15T07:20:18;7.30;99.90
18884;DHT22;9574;47.282;9.640;2023-04-15T07:22:45;7.40;99.90
18884;DHT22;9574;47.282;9.640;2023-04-15T07:25:11;7.50;99.90
18884;DHT22;9574;47.282;9.640;2023-04-15T07:27:40;7.50;99.90
18884;DHT22;9574;47.282;9.640;2023-04-15T07:30:09;7.70;99.90
18884;DHT22;9574;47.282;9.640;2023-04-15T07:32:37;8.00;99.90
18884;DHT22;9574;47.282;9.640;2023-04-15T07:35:04;8.20;99.90
18884;DHT22;9574;47.282;9.640;2023-04-15T07:37:31;8.70;99.90
18884;DHT22;9574;47.282;9.640;2023-04-15T07:39:58;9.10;99.90
18884;DHT22;9574;47.282;9.640;2023-04-15T07:42:25;9.30;99.90
18884;DHT22;9574;47.282;9.640;2023-04-15T07:44:55;9.30;99.90
18884;DHT22;9574;47.282;9.640;2023-04-15T07:47:22;9.10;99.90
18884;DHT22;9574;47.282;9.640;2023-04-15T07:49:50;8.90;99.90
18884;DHT22;9574;47.282;9.640;2023-04-15T07:52:17;8.80;99.90
18884;DHT22;9574;47.282;9.640;2023-04-15T07:54:44;8.70;99.90
18884;DHT22;9574;47.282;9.640;2023-04-15T07:57:11;8.60;99.90
18884;DHT22;9574;47.282;9.640;2023-04-15T07:59:38;8.60;99.90
18884;DHT22;9574;47.282;9.640;2023-04-15T08:02:08;8.60;99.90
18884;DHT22;9574;47.282;9.640;2023-04-15T08:04:35;8.60;99.90
18884;DHT22;9574;47.282;9.640;2023-04-15T08:07:02;8.70;99.90
18884;DHT22;9574;47.282;9.640;2023-04-15T08:09:29;8.70;99.90
18884;DHT22;9574;47.282;9.640;2023-04-15T08:11:56;8.80;99.90
18884;DHT22;9574;47.282;9.640;2023-04-15T08:14:23;8.90;99.90
18884;DHT22;9574;47.282;9.640;2023-04-15T08:16:50;9.10;99.90
18884;DHT22;9574;47.282;9.640;2023-04-15T08:19:19;9.20;99.90
18884;DHT22;9574;47.282;9.640;2023-04-15T08:21:46;9.40;99.90
18884;DHT22;9574;47.282;9.640;2023-04-15T08:24:13;9.40;99.90
18884;DHT22;9574;47.282;9.640;2023-04-15T08:26:40;9.60;99.90
18884;DHT22;9574;47.282;9.640;2023-04-15T08:29:07;9.70;99.90
18884;DHT22;9574;47.282;9.640;2023-04-15T08:31:34;9.80;99.90
18884;DHT22;9574;47.282;9.640;2023-04-15T08:34:01;9.90;99.90
18884;DHT22;9574;47.282;9.640;2023-04-15T08:36:30;10.10;99.90
18884;DHT22;9574;47.282;9.640;2023-04-15T08:38:57;10.30;99.90
18884;DHT22;9574;47.282;9.640;2023-04-15T08:41:26;10.40;99.90
18884;DHT22;9574;47.282;9.640;2023-04-15T08:43:55;10.50;99.90
18884;DHT22;9574;47.282;9.640;2023-04-15T08:46:23;10.60;99.90
18884;DHT22;9574;47.282;9.640;2023-04-15T08:48:51;10.80;99.90
18884;DHT22;9574;47.282;9.640;2023-04-15T08:51:18;10.80;99.90
18884;DHT22;9574;47.282;9.640;2023-04-15T08:53:49;10.80;99.90
18884;DHT22;9574;47.282;9.640;2023-04-15T08:56:17;10.80;99.90
18884;DHT22;9574;47.282;9.640;2023-04-15T08:58:45;10.90;99.90
18884;DHT22;9574;47.282;9.640;2023-04-15T09:01:13;10.90;99.90
18884;DHT22;9574;47.282;9.640;2023-04-15T09:03:41;10.90;99.90
18884;DHT22;9574;47.282;9.640;2023-04-15T09:06:08;10.40;99.90
18884;DHT22;9574;47.282;9.640;2023-04-15T09:08:35;10.50;99.90
18884;DHT22;9574;47.282;9.640;2023-04-15T09:11:04;10.60;99.90
18884;DHT22;9574;47.282;9.640;2023-04-15T09:13:31;10.70;99.90
18884;DHT22;9574;47.282;9.640;2023-04-15T09:15:58;10.50;99.90
18884;DHT22;9574;47.282;9.640;2023-04-15T09:18:29;10.80;99.90
18884;DHT22;9574;47.282;9.640;2023-04-15T09:21:03;10.80;99.90
18884;DHT22;9574;47.282;9.640;2023-04-15T09:23:31;11.00;99.90
18884;DHT22;9574;47.282;9.640;2023-04-15T09:26:00;11.10;99.90
18884;DHT22;9574;47.282;9.640;2023-04-15T09:28:28;11.10;99.90
18884;DHT22;9574;47.282;9.640;2023-04-15T09:30:56;11.30;99.90
18884;DHT22;9574;47.282;9.640;2023-04-15T09:33:24;11.40;99.90
18884;DHT22;9574;47.282;9.640;2023-04-15T09:35:59;11.40;99.90
18884;DHT22;9574;47.282;9.640;2023-04-15T09:38:27;11.50;99.90
18884;DHT22;9574;47.282;9.640;2023-04-15T09:40:54;11.50;99.90
18884;DHT22;9574;47.282;9.640;2023-04-15T09:43:21;11.50;99.90
18884;DHT22;9574;47.282;9.640;2023-04-15T09:45:53;11.80;99.90
18884;DHT22;9574;47.282;9.640;2023-04-15T09:48:21;12.10;99.90
18884;DHT22;9574;47.282;9.640;2023-04-15T09:50:51;12.10;99.90
18884;DHT22;9574;47.282;9.640;2023-04-15T09:53:20;12.20;99.90
18884;DHT22;9574;47.282;9.640;2023-04-15T09:55:49;12.20;99.90
18884;DHT22;9574;47.282;9.640;2023-04-15T09:58:17;12.40;99.90
18884;DHT22;9574;47.282;9.640;2023-04-15T10:00:46;12.60;99.90
18884;DHT22;9574;47.282;9.640;2023-04-15T10:03:18;12.60;99.90
18884;DHT22;9574;47.282;9.640;2023-04-15T10:05:47;12.50;99.90
18884;DHT22;9574;47.282;9.640;2023-04-15T10:08:16;12.60;99.90
18884;DHT22;9574;47.282;9.640;2023-04-15T10:10:44;12.70;99.90
18884;DHT22;9574;47.282;9.640;2023-04-15T10:13:13;12.90;99.90
18884;DHT22;9574;47.282;9.640;2023-04-15T10:15:44;12.70;99.90
18884;DHT22;9574;47.282;9.640;2023-04-15T10:18:17;12.60;99.90
18884;DHT22;9574;47.282;9.640;2023-04-15T10:20:45;12.80;99.90
18884;DHT22;9574;47.282;9.640;2023-04-15T10:23:14;13.00;99.90
18884;DHT22;9574;47.282;9.640;2023-04-15T10:25:42;13.40;99.90
18884;DHT22;9574;47.282;9.640;2023-04-15T10:28:10;13.70;99.90
18884;DHT22;9574;47.282;9.640;2023-04-15T10:30:37;13.60;99.90
18884;DHT22;9574;47.282;9.640;2023-04-15T10:33:05;13.60;99.90
18884;DHT22;9574;47.282;9.640;2023-04-15T10:35:35;13.40;99.90
18884;DHT22;9574;47.282;9.640;2023-04-15T10:38:30;13.70;99.90
18884;DHT22;9574;47.282;9.640;2023-04-15T10:41:11;14.30;99.90
18884;DHT22;9574;47.282;9.640;2023-04-15T10:43:39;14.80;99.90
18884;DHT22;9574;47.282;9.640;2023-04-15T10:46:06;15.10;99.90
18884;DHT22;9574;47.282;9.640;2023-04-15T10:48:33;15.30;99.90
18884;DHT22;9574;47.282;9.640;2023-04-15T10:51:01;15.40;99.90
18884;DHT22;9574;47.282;9.640;2023-04-15T10:53:29;15.40;99.90
18884;DHT22;9574;47.282;9.640;2023-04-15T10:55:57;15.10;99.90
18884;DHT22;9574;47.282;9.640;2023-04-15T10:58:24;14.80;99.90
18884;DHT22;9574;47.282;9.640;2023-04-15T11:00:52;14.60;99.90
18884;DHT22;9574;47.282;9.640;2023-04-15T11:03:36;14.80;99.90
18884;DHT22;9574;47.282;9.640;2023-04-15T11:06:05;14.90;99.90
18884;DHT22;9574;47.282;9.640;2023-04-15T11:08:52;14.80;99.90
18884;DHT22;9574;47.282;9.640;2023-04-15T11:11:20;14.70;99.90
18884;DHT22;9574;47.282;9.640;2023-04-15T11:13:47;14.30;99.90
18884;DHT22;9574;47.282;9.640;2023-04-15T11:16:15;14.20;99.90
18884;DHT22;9574;47.282;9.640;2023-04-15T11:18:42;14.30;99.90
18884;DHT22;9574;47.282;9.640;2023-04-15T11:21:23;14.30;99.90
18884;DHT22;9574;47.282;9.640;2023-04-15T11:23:51;14.30;99.90
18884;DHT22;9574;47.282;9.640;2023-04-15T11:26:18;14.30;99.90
18884;DHT22;9574;47.282;9.640;2023-04-15T11:28:45;14.30;99.90
18884;DHT22;9574;47.282;9.640;2023-04-15T11:31:13;14.20;99.90
18884;DHT22;9574;47.282;9.640;2023-04-15T11:33:45;14.20;99.90
18884;DHT22;9574;47.282;9.640;2023-04-15T11:36:12;14.10;99.90
18884;DHT22;9574;47.282;9.640;2023-04-15T11:38:43;13.90;99.90
18884;DHT22;9574;47.282;9.640;2023-04-15T11:41:12;13.90;99.90
18884;DHT22;9574;47.282;9.640;2023-04-15T11:43:39;13.80;99.90
18884;DHT22;9574;47.282;9.640;2023-04-15T11:46:06;13.70;99.90
18884;DHT22;9574;47.282;9.640;2023-04-15T11:48:35;13.60;99.90
18884;DHT22;9574;47.282;9.640;2023-04-15T11:51:03;13.70;99.90
18884;DHT22;9574;47.282;9.640;2023-04-15T11:53:39;13.60;99.90
18884;DHT22;9574;47.282;9.640;2023-04-15T11:56:16;13.50;99.90
18884;DHT22;9574;47.282;9.640;2023-04-15T11:58:43;13.50;99.90
18884;DHT22;9574;47.282;9.640;2023-04-15T12:01:11;13.50;99.90
18884;DHT22;9574;47.282;9.640;2023-04-15T12:03:39;13.50;99.90
18884;DHT22;9574;47.282;9.640;2023-04-15T12:06:12;13.50;99.90
18884;DHT22;9574;47.282;9.640;2023-04-15T12:09:03;13.70;99.90
18884;DHT22;9574;47.282;9.640;2023-04-15T12:11:39;13.80;99.90
18884;DHT22;9574;47.282;9.640;2023-04-15T12:14:09;13.90;99.90
18884;DHT22;9574;47.282;9.640;2023-04-15T12:16:39;14.10;99.90
18884;DHT22;9574;47.282;9.640;2023-04-15T12:19:09;14.20;99.90
18884;DHT22;9574;47.282;9.640;2023-04-15T12:21:37;14.10;99.90
18884;DHT22;9574;47.282;9.640;2023-04-15T12:24:06;14.00;99.90
18884;DHT22;9574;47.282;9.640;2023-04-15T12:26:35;13.90;99.90
18884;DHT22;9574;47.282;9.640;2023-04-15T12:29:18;13.80;99.90
18884;DHT22;9574;47.282;9.640;2023-04-15T12:32:04;13.80;99.90
18884;DHT22;9574;47.282;9.640;2023-04-15T12:34:32;13.90;99.90
18884;DHT22;9574;47.282;9.640;2023-04-15T12:37:01;13.80;99.90
18884;DHT22;9574;47.282;9.640;2023-04-15T12:39:30;13.90;99.90
18884;DHT22;9574;47.282;9.640;2023-04-15T12:41:58;13.80;99.90
18884;DHT22;9574;47.282;9.640;2023-04-15T12:44:27;13.90;99.90
18884;DHT22;9574;47.282;9.640;2023-04-15T12:46:54;13.80;99.90
18884;DHT22;9574;47.282;9.640;2023-04-15T12:49:22;13.90;99.90
18884;DHT22;9574;47.282;9.640;2023-04-15T12:51:51;13.80;99.90
18884;DHT22;9574;47.282;9.640;2023-04-15T12:54:18;13.80;99.90
18884;DHT22;9574;47.282;9.640;2023-04-15T12:56:47;13.90;99.90
18884;DHT22;9574;47.282;9.640;2023-04-15T12:59:15;13.80;99.90
18884;DHT22;9574;47.282;9.640;2023-04-15T13:01:45;13.70;99.90
18884;DHT22;9574;47.282;9.640;2023-04-15T13:04:13;13.60;99.90
18884;DHT22;9574;47.282;9.640;2023-04-15T13:06:41;13.60;99.90
18884;DHT22;9574;47.282;9.640;2023-04-15T13:09:08;13.50;99.90
18884;DHT22;9574;47.282;9.640;2023-04-15T13:11:35;13.50;99.90
18884;DHT22;9574;47.282;9.640;2023-04-15T13:14:04;13.70;99.90
18884;DHT22;9574;47.282;9.640;2023-04-15T13:16:31;13.80;99.90
18884;DHT22;9574;47.282;9.640;2023-04-15T13:19:01;13.80;99.90
18884;DHT22;9574;47.282;9.640;2023-04-15T13:21:28;13.70;99.90
18884;DHT22;9574;47.282;9.640;2023-04-15T13:23:56;13.50;99.90
18884;DHT22;9574;47.282;9.640;2023-04-15T13:26:23;13.50;99.90
18884;DHT22;9574;47.282;9.640;2023-04-15T13:28:51;13.50;99.90
18884;DHT22;9574;47.282;9.640;2023-04-15T13:31:18;13.60;99.90
18884;DHT22;9574;47.282;9.640;2023-04-15T13:33:45;13.70;99.90
18884;DHT22;9574;47.282;9.640;2023-04-15T13:36:13;13.70;99.90
18884;DHT22;9574;47.282;9.640;2023-04-15T13:38:40;13.80;99.90
18884;DHT22;9574;47.282;9.640;2023-04-15T13:41:07;13.90;99.90
18884;DHT22;9574;47.282;9.640;2023-04-15T13:43:34;13.90;99.90
18884;DHT22;9574;47.282;9.640;2023-04-15T13:46:01;14.00;99.90
18884;DHT22;9574;47.282;9.640;2023-04-15T13:48:28;14.00;99.90
18884;DHT22;9574;47.282;9.640;2023-04-15T13:50:55;14.10;98.50
18884;DHT22;9574;47.282;9.640;2023-04-15T13:53:24;14.20;96.70
18884;DHT22;9574;47.282;9.640;2023-04-15T13:55:50;14.00;95.00
18884;DHT22;9574;47.282;9.640;2023-04-15T13:58:17;14.10;93.70
18884;DHT22;9574;47.282;9.640;2023-04-15T14:00:44;14.10;94.80
18884;DHT22;9574;47.282;9.640;2023-04-15T14:03:11;14.10;95.20
18884;DHT22;9574;47.282;9.640;2023-04-15T14:05:38;13.80;97.70
18884;DHT22;9574;47.282;9.640;2023-04-15T14:08:05;13.90;95.80
18884;DHT22;9574;47.282;9.640;2023-04-15T14:10:34;14.00;94.80
18884;DHT22;9574;47.282;9.640;2023-04-15T14:13:01;14.00;97.50
18884;DHT22;9574;47.282;9.640;2023-04-15T14:15:28;14.00;96.10
18884;DHT22;9574;47.282;9.640;2023-04-15T14:17:55;14.10;98.00
18884;DHT22;9574;47.282;9.640;2023-04-15T14:20:22;14.20;98.90
18884;DHT22;9574;47.282;9.640;2023-04-15T14:22:49;14.20;97.40
18884;DHT22;9574;47.282;9.640;2023-04-15T14:25:16;14.10;95.70
18884;DHT22;9574;47.282;9.640;2023-04-15T14:27:44;14.00;95.50
18884;DHT22;9574;47.282;9.640;2023-04-15T14:30:14;13.80;95.90
18884;DHT22;9574;47.282;9.640;2023-04-15T14:32:41;13.70;96.30
18884;DHT22;9574;47.282;9.640;2023-04-15T14:35:08;13.60;96.60
18884;DHT22;9574;47.282;9.640;2023-04-15T14:37:35;13.50;96.10
18884;DHT22;9574;47.282;9.640;2023-04-15T14:40:03;13.50;96.90
18884;DHT22;9574;47.282;9.640;2023-04-15T14:42:30;13.50;96.50
18884;DHT22;9574;47.282;9.640;2023-04-15T14:44:58;13.50;95.90
18884;DHT22;9574;47.282;9.640;2023-04-15T14:47:25;13.50;99.00
18884;DHT22;9574;47.282;9.640;2023-04-15T14:49:52;13.40;99.90
18884;DHT22;9574;47.282;9.640;2023-04-15T14:52:20;13.20;99.80
18884;DHT22;9574;47.282;9.640;2023-04-15T14:54:47;13.10;99.90
18884;DHT22;9574;47.282;9.640;2023-04-15T14:57:13;13.00;99.90
18884;DHT22;9574;47.282;9.640;2023-04-15T14:59:40;12.70;99.70
18884;DHT22;9574;47.282;9.640;2023-04-15T15:02:09;12.40;98.50
18884;DHT22;9574;47.282;9.640;2023-04-15T15:04:36;12.30;99.90
18884;DHT22;9574;47.282;9.640;2023-04-15T15:07:03;12.20;99.90
18884;DHT22;9574;47.282;9.640;2023-04-15T15:09:30;12.20;99.40
18884;DHT22;9574;47.282;9.640;2023-04-15T15:11:57;12.20;99.80
18884;DHT22;9574;47.282;9.640;2023-04-15T15:14:24;12.40;99.90
18884;DHT22;9574;47.282;9.640;2023-04-15T15:16:51;12.50;99.90
18884;DHT22;9574;47.282;9.640;2023-04-15T15:19:19;12.30;99.90
18884;DHT22;9574;47.282;9.640;2023-04-15T15:21:46;12.30;99.90
18884;DHT22;9574;47.282;9.640;2023-04-15T15:24:13;12.40;99.90
18884;DHT22;9574;47.282;9.640;2023-04-15T15:26:40;12.40;99.90
18884;DHT22;9574;47.282;9.640;2023-04-15T15:29:07;12.30;99.90
18884;DHT22;9574;47.282;9.640;2023-04-15T15:31:34;12.30;99.90
18884;DHT22;9574;47.282;9.640;2023-04-15T15:34:02;12.30;99.90
18884;DHT22;9574;47.282;9.640;2023-04-15T15:36:30;12.20;99.90
18884;DHT22;9574;47.282;9.640;2023-04-15T15:38:57;12.00;99.90
18884;DHT22;9574;47.282;9.640;2023-04-15T15:41:25;11.90;99.90
18884;DHT22;9574;47.282;9.640;2023-04-15T15:43:52;12.00;99.90
18884;DHT22;9574;47.282;9.640;2023-04-15T15:46:19;12.00;99.90
18884;DHT22;9574;47.282;9.640;2023-04-15T15:48:48;12.00;99.90
18884;DHT22;9574;47.282;9.640;2023-04-15T15:51:15;12.10;99.90
18884;DHT22;9574;47.282;9.640;2023-04-15T15:53:44;12.30;99.90
18884;DHT22;9574;47.282;9.640;2023-04-15T15:56:11;12.40;99.90
18884;DHT22;9574;47.282;9.640;2023-04-15T15:58:37;12.50;99.90